sensor_id;sensor_type;location;lat;lon;timestamp;pressure;altitude;pressure_sealevel;temperature;humidity
75359;BME280;64046;51.978;5.934;2024-01-15T00:02:20;100172.50;;;7.59;90.05
75359;BME280;64046;51.978;5.934;2024-01-15T00:04:54;100159.63;;;7.56;90.32
75359;BME280;64046;51.978;5.934;2024-01-15T00:07:26;100164.97;;;7.53;90.28
75359;BME280;64046;51.978;5.934;2024-01-15T00:09:58;100149.50;;;7.69;89.98
75359;BME280;64046;51.978;5.934;2024-01-15T00:12:28;100163.84;;;7.58;90.27
75359;BME280;64046;51.978;5.934;2024-01-15T00:14:58;100156.41;;;7.49;90.02
75359;BME280;64046;51.978;5.934;2024-01-15T00:17:27;100156.34;;;7.51;90.20
75359;BME280;64046;51.978;5.934;2024-01-15T00:19:59;100155.72;;;7.45;90.11
75359;BME280;64046;51.978;5.934;2024-01-15T00:22:30;100153.69;;;7.52;90.04
75359;BME280;64046;51.978;5.934;2024-01-15T00:25:05;100148.75;;;7.67;89.63
75359;BME280;64046;51.978;5.934;2024-01-15T00:27:34;100156.34;;;7.51;89.56
75359;BME280;64046;51.978;5.934;2024-01-15T00:30:05;100153.34;;;7.60;89.44
75359;BME280;64046;51.978;5.934;2024-01-15T00:32:35;100148.72;;;7.46;89.24
75359;BME280;64046;51.978;5.934;2024-01-15T00:35:05;100141.63;;;7.50;89.47
75359;BME280;64046;51.978;5.934;2024-01-15T00:37:35;100140.19;;;7.42;89.36
75359;BME280;64046;51.978;5.934;2024-01-15T00:40:09;100140.19;;;7.63;89.02
75359;BME280;64046;51.978;5.934;2024-01-15T00:42:39;100144.09;;;7.53;88.88
75359;BME280;64046;51.978;5.934;2024-01-15T00:45:09;100130.28;;;7.51;88.88
75359;BME280;64046;51.978;5.934;2024-01-15T00:47:40;100137.59;;;7.42;88.85
75359;BME280;64046;51.978;5.934;2024-01-15T00:50:10;100134.38;;;7.36;88.33
75359;BME280;64046;51.978;5.934;2024-01-15T00:52:44;100125.06;;;7.30;88.41
75359;BME280;64046;51.978;5.934;2024-01-15T00:55:17;100118.38;;;7.45;87.89
75359;BME280;64046;51.978;5.934;2024-01-15T00:57:46;100121.84;;;7.23;88.21
75359;BME280;64046;51.978;5.934;2024-01-15T01:00:18;100118.69;;;7.37;87.85
75359;BME280;64046;51.978;5.934;2024-01-15T01:02:50;100118.88;;;7.33;87.46
75359;BME280;64046;51.978;5.934;2024-01-15T01:05:20;100112.53;;;7.18;87.72
75359;BME280;64046;51.978;5.934;2024-01-15T01:07:52;100112.88;;;7.10;87.68
75359;BME280;64046;51.978;5.934;2024-01-15T01:10:24;100112.38;;;7.22;87.41
75359;BME280;64046;51.978;5.934;2024-01-15T01:12:54;100106.22;;;7.03;87.70
75359;BME280;64046;51.978;5.934;2024-01-15T01:15:23;100102.84;;;7.01;87.22
75359;BME280;64046;51.978;5.934;2024-01-15T01:17:53;100100.41;;;6.96;87.24
75359;BME280;64046;51.978;5.934;2024-01-15T01:20:24;100087.75;;;6.87;87.15
75359;BME280;64046;51.978;5.934;2024-01-15T01:22:53;100090.63;;;6.81;87.49
75359;BME280;64046;51.978;5.934;2024-01-15T01:25:25;100091.03;;;6.92;87.26
75359;BME280;64046;51.978;5.934;2024-01-15T01:27:55;100088.38;;;6.71;87.46
75359;BME280;64046;51.978;5.934;2024-01-15T01:30:24;100090.97;;;6.71;87.60
75359;BME280;64046;51.978;5.934;2024-01-15T01:32:53;100091.03;;;6.70;87.69
75359;BME280;64046;51.978;5.934;2024-01-15T01:35:22;100102.22;;;6.72;88.01
75359;BME280;64046;51.978;5.934;2024-01-15T01:37:53;100095.50;;;6.88;87.54
75359;BME280;64046;51.978;5.934;2024-01-15T01:40:25;100098.00;;;6.91;87.24
75359;BME280;64046;51.978;5.934;2024-01-15T01:42:57;100105.88;;;6.90;87.34
75359;BME280;64046;51.978;5.934;2024-01-15T01:45:24;100106.66;;;6.70;87.41
75359;BME280;64046;51.978;5.934;2024-01-15T01:47:57;100099.63;;;6.72;87.61
75359;BME280;64046;51.978;5.934;2024-01-15T01:50:27;100104.63;;;6.78;87.55
75359;BME280;64046;51.978;5.934;2024-01-15T01:52:58;100110.16;;;6.69;87.33
75359;BME280;64046;51.978;5.934;2024-01-15T01:55:32;100105.31;;;6.82;87.33
75359;BME280;64046;51.978;5.934;2024-01-15T01:58:04;100104.81;;;6.73;87.82
75359;BME280;64046;51.978;5.934;2024-01-15T02:00:34;100116.06;;;6.74;87.41
75359;BME280;64046;51.978;5.934;2024-01-15T02:03:08;100107.69;;;6.88;87.25
75359;BME280;64046;51.978;5.934;2024-01-15T02:05:39;100107.16;;;6.80;87.52
75359;BME280;64046;51.978;5.934;2024-01-15T02:08:08;100094.50;;;6.70;87.53
75359;BME280;64046;51.978;5.934;2024-01-15T02:10:43;100097.22;;;6.89;86.94
75359;BME280;64046;51.978;5.934;2024-01-15T02:13:12;100096.25;;;6.70;87.39
75359;BME280;64046;51.978;5.934;2024-01-15T02:15:41;100091.88;;;6.70;87.46
75359;BME280;64046;51.978;5.934;2024-01-15T02:18:11;100097.00;;;6.73;87.23
75359;BME280;64046;51.978;5.934;2024-01-15T02:20:41;100096.25;;;6.70;86.92
75359;BME280;64046;51.978;5.934;2024-01-15T02:23:14;100098.88;;;6.90;86.56
75359;BME280;64046;51.978;5.934;2024-01-15T02:25:48;100092.97;;;6.87;86.55
75359;BME280;64046;51.978;5.934;2024-01-15T02:28:18;100090.22;;;6.69;86.62
75359;BME280;64046;51.978;5.934;2024-01-15T02:30:48;100091.13;;;6.68;86.64
75359;BME280;64046;51.978;5.934;2024-01-15T02:33:19;100090.28;;;6.68;86.67
75359;BME280;64046;51.978;5.934;2024-01-15T02:35:49;100098.84;;;6.70;86.29
75359;BME280;64046;51.978;5.934;2024-01-15T02:38:21;100093.94;;;6.84;85.73
75359;BME280;64046;51.978;5.934;2024-01-15T02:40:52;100100.00;;;6.63;85.40
75359;BME280;64046;51.978;5.934;2024-01-15T02:43:21;100088.81;;;6.61;85.57
75359;BME280;64046;51.978;5.934;2024-01-15T02:45:50;100104.53;;;6.57;85.56
75359;BME280;64046;51.978;5.934;2024-01-15T02:48:20;100122.88;;;6.54;85.20
75359;BME280;64046;51.978;5.934;2024-01-15T02:50:50;100123.91;;;6.50;85.63
75359;BME280;64046;51.978;5.934;2024-01-15T02:53:22;100115.16;;;6.75;85.24
75359;BME280;64046;51.978;5.934;2024-01-15T02:55:52;100121.72;;;6.62;85.16
75359;BME280;64046;51.978;5.934;2024-01-15T02:58:23;100113.94;;;6.62;85.42
75359;BME280;64046;51.978;5.934;2024-01-15T03:00:55;100111.50;;;6.57;85.66
75359;BME280;64046;51.978;5.934;2024-01-15T03:03:24;100103.78;;;6.32;86.48
75359;BME280;64046;51.978;5.934;2024-01-15T03:05:54;100106.50;;;6.29;87.21
75359;BME280;64046;51.978;5.934;2024-01-15T03:08:27;100100.59;;;6.47;87.11
75359;BME280;64046;51.978;5.934;2024-01-15T03:10:56;100094.25;;;6.32;87.34
75359;BME280;64046;51.978;5.934;2024-01-15T03:13:26;100099.47;;;6.32;87.43
75359;BME280;64046;51.978;5.934;2024-01-15T03:15:55;100098.44;;;6.36;87.54
75359;BME280;64046;51.978;5.934;2024-01-15T03:18:24;100093.75;;;6.45;87.38
75359;BME280;64046;51.978;5.934;2024-01-15T03:20:55;100106.44;;;6.54;87.12
75359;BME280;64046;51.978;5.934;2024-01-15T03:23:27;100096.94;;;6.75;86.76
75359;BME280;64046;51.978;5.934;2024-01-15T03:25:57;100106.97;;;6.62;87.01
75359;BME280;64046;51.978;5.934;2024-01-15T03:28:27;100093.97;;;6.62;86.97
75359;BME280;64046;51.978;5.934;2024-01-15T03:30:58;100100.78;;;6.65;86.87
75359;BME280;64046;51.978;5.934;2024-01-15T03:33:29;100092.88;;;6.68;86.62
75359;BME280;64046;51.978;5.934;2024-01-15T03:35:59;100089.34;;;6.69;86.55
75359;BME280;64046;51.978;5.934;2024-01-15T03:38:31;100081.66;;;6.88;86.28
75359;BME280;64046;51.978;5.934;2024-01-15T03:41:01;100088.31;;;6.73;85.81
75359;BME280;64046;51.978;5.934;2024-01-15T03:43:30;100086.63;;;6.72;85.59
75359;BME280;64046;51.978;5.934;2024-01-15T03:45:59;100082.47;;;6.68;85.78
75359;BME280;64046;51.978;5.934;2024-01-15T03:48:28;100084.19;;;6.67;85.62
75359;BME280;64046;51.978;5.934;2024-01-15T03:50:58;100084.19;;;6.67;85.61
75359;BME280;64046;51.978;5.934;2024-01-15T03:53:31;100083.59;;;6.83;85.23
75359;BME280;64046;51.978;5.934;2024-01-15T03:56:01;100082.63;;;6.63;85.56
75359;BME280;64046;51.978;5.934;2024-01-15T03:58:30;100077.47;;;6.62;85.57
75359;BME280;64046;51.978;5.934;2024-01-15T04:01:00;100086.03;;;6.65;85.43
75359;BME280;64046;51.978;5.934;2024-01-15T04:03:30;100097.34;;;6.64;85.62
75359;BME280;64046;51.978;5.934;2024-01-15T04:06:01;100089.19;;;6.73;85.57
75359;BME280;64046;51.978;5.934;2024-01-15T04:08:33;100071.06;;;6.70;86.00
75359;BME280;64046;51.978;5.934;2024-01-15T04:11:04;100083.84;;;6.54;86.32
75359;BME280;64046;51.978;5.934;2024-01-15T04:13:34;100083.00;;;6.54;86.33
75359;BME280;64046;51.978;5.934;2024-01-15T04:16:05;100077.00;;;6.52;86.66
75359;BME280;64046;51.978;5.934;2024-01-15T04:18:34;100080.53;;;6.51;86.39
75359;BME280;64046;51.978;5.934;2024-01-15T04:21:05;100066.44;;;6.56;86.58
75359;BME280;64046;51.978;5.934;2024-01-15T04:23:39;100069.25;;;6.72;86.28
75359;BME280;64046;51.978;5.934;2024-01-15T04:26:09;100052.00;;;6.70;86.59
75359;BME280;64046;51.978;5.934;2024-01-15T04:28:41;100052.66;;;6.75;86.38
75359;BME280;64046;51.978;5.934;2024-01-15T04:31:20;100041.72;;;6.87;85.86
75359;BME280;64046;51.978;5.934;2024-01-15T04:33:50;100042.63;;;6.66;86.42
75359;BME280;64046;51.978;5.934;2024-01-15T04:36:21;100041.09;;;6.82;86.54
75359;BME280;64046;51.978;5.934;2024-01-15T04:38:54;100054.09;;;6.82;86.27
75359;BME280;64046;51.978;5.934;2024-01-15T04:41:23;100043.56;;;6.63;86.67
75359;BME280;64046;51.978;5.934;2024-01-15T04:43:52;100050.41;;;6.66;86.56
75359;BME280;64046;51.978;5.934;2024-01-15T04:46:22;100038.31;;;6.65;86.59
75359;BME280;64046;51.978;5.934;2024-01-15T04:48:51;100039.19;;;6.65;86.60
75359;BME280;64046;51.978;5.934;2024-01-15T04:51:20;100045.34;;;6.63;86.68
75359;BME280;64046;51.978;5.934;2024-01-15T04:53:49;100043.00;;;6.56;86.76
75359;BME280;64046;51.978;5.934;2024-01-15T04:56:22;100035.75;;;6.63;86.90
75359;BME280;64046;51.978;5.934;2024-01-15T04:58:53;100028.34;;;6.54;87.48
75359;BME280;64046;51.978;5.934;2024-01-15T05:01:24;100033.44;;;6.35;88.00
75359;BME280;64046;51.978;5.934;2024-01-15T05:03:54;100027.56;;;6.30;88.00
75359;BME280;64046;51.978;5.934;2024-01-15T05:06:25;100026.06;;;6.46;87.96
75359;BME280;64046;51.978;5.934;2024-01-15T05:08:55;100019.69;;;6.31;88.05
75359;BME280;64046;51.978;5.934;2024-01-15T05:11:30;100019.69;;;6.53;87.45
75359;BME280;64046;51.978;5.934;2024-01-15T05:13:59;100010.94;;;6.34;87.76
75359;BME280;64046;51.978;5.934;2024-01-15T05:16:30;100015.66;;;6.46;87.67
75359;BME280;64046;51.978;5.934;2024-01-15T05:18:59;100009.91;;;6.38;87.64
75359;BME280;64046;51.978;5.934;2024-01-15T05:21:31;100005.19;;;6.48;87.67
75359;BME280;64046;51.978;5.934;2024-01-15T05:24:00;100012.06;;;6.49;87.11
75359;BME280;64046;51.978;5.934;2024-01-15T05:26:35;100003.31;;;6.72;86.40
75359;BME280;64046;51.978;5.934;2024-01-15T05:29:05;100009.38;;;6.50;86.79
75359;BME280;64046;51.978;5.934;2024-01-15T05:31:42;99999.31;;;6.63;86.86
75359;BME280;64046;51.978;5.934;2024-01-15T05:34:12;100004.72;;;6.58;86.77
75359;BME280;64046;51.978;5.934;2024-01-15T05:36:43;99999.94;;;6.70;86.58
75359;BME280;64046;51.978;5.934;2024-01-15T05:39:14;99997.78;;;6.59;86.63
75359;BME280;64046;51.978;5.934;2024-01-15T05:41:45;100005.91;;;6.72;86.46
75359;BME280;64046;51.978;5.934;2024-01-15T05:44:15;99999.16;;;6.46;86.80
75359;BME280;64046;51.978;5.934;2024-01-15T05:46:47;100001.00;;;6.44;87.51
75359;BME280;64046;51.978;5.934;2024-01-15T05:49:20;100002.69;;;6.45;87.21
75359;BME280;64046;51.978;5.934;2024-01-15T05:51:51;100003.81;;;6.37;87.55
75359;BME280;64046;51.978;5.934;2024-01-15T05:54:22;100008.19;;;6.37;88.09
75359;BME280;64046;51.978;5.934;2024-01-15T05:56:56;100002.44;;;6.51;87.97
75359;BME280;64046;51.978;5.934;2024-01-15T05:59:26;100005.78;;;6.32;88.69
75359;BME280;64046;51.978;5.934;2024-01-15T06:01:58;100002.50;;;6.27;89.17
75359;BME280;64046;51.978;5.934;2024-01-15T06:04:28;100005.00;;;6.30;89.13
75359;BME280;64046;51.978;5.934;2024-01-15T06:06:58;100011.06;;;6.31;89.32
75359;BME280;64046;51.978;5.934;2024-01-15T06:09:31;100010.13;;;6.54;88.98
75359;BME280;64046;51.978;5.934;2024-01-15T06:12:08;100015.41;;;6.52;89.03
75359;BME280;64046;51.978;5.934;2024-01-15T06:14:38;100016.13;;;6.34;89.80
75359;BME280;64046;51.978;5.934;2024-01-15T06:17:08;100017.91;;;6.33;89.87
75359;BME280;64046;51.978;5.934;2024-01-15T06:19:38;100002.28;;;6.33;90.30
75359;BME280;64046;51.978;5.934;2024-01-15T06:22:08;100007.31;;;6.38;90.49
75359;BME280;64046;51.978;5.934;2024-01-15T06:24:37;100009.97;;;6.36;90.57
75359;BME280;64046;51.978;5.934;2024-01-15T06:27:10;100006.63;;;6.55;90.69
75359;BME280;64046;51.978;5.934;2024-01-15T06:29:45;100012.41;;;6.62;90.14
75359;BME280;64046;51.978;5.934;2024-01-15T06:32:17;100016.56;;;6.45;90.94
75359;BME280;64046;51.978;5.934;2024-01-15T06:34:47;100011.09;;;6.51;90.68
75359;BME280;64046;51.978;5.934;2024-01-15T06:37:18;100004.31;;;6.47;90.91
75359;BME280;64046;51.978;5.934;2024-01-15T06:39:48;100009.53;;;6.47;91.16
75359;BME280;64046;51.978;5.934;2024-01-15T06:42:22;100014.09;;;6.63;91.09
75359;BME280;64046;51.978;5.934;2024-01-15T06:44:58;100022.66;;;6.66;91.08
75359;BME280;64046;51.978;5.934;2024-01-15T06:47:31;100022.03;;;6.60;91.07
75359;BME280;64046;51.978;5.934;2024-01-15T06:50:01;100014.00;;;6.44;91.83
75359;BME280;64046;51.978;5.934;2024-01-15T06:52:31;100016.63;;;6.44;91.43
75359;BME280;64046;51.978;5.934;2024-01-15T06:55:00;100021.88;;;6.42;91.33
75359;BME280;64046;51.978;5.934;2024-01-15T06:57:34;100018.53;;;6.61;91.49
75359;BME280;64046;51.978;5.934;2024-01-15T07:00:06;100016.00;;;6.59;91.17
75359;BME280;64046;51.978;5.934;2024-01-15T07:02:46;100011.63;;;6.60;91.18
75359;BME280;64046;51.978;5.934;2024-01-15T07:05:16;100005.41;;;6.41;94.52
75359;BME280;64046;51.978;5.934;2024-01-15T07:07:47;100005.53;;;6.61;92.69
75359;BME280;64046;51.978;5.934;2024-01-15T07:10:16;100009.72;;;6.63;91.85
75359;BME280;64046;51.978;5.934;2024-01-15T07:12:49;100003.97;;;6.77;91.36
75359;BME280;64046;51.978;5.934;2024-01-15T07:15:20;100007.13;;;6.63;91.49
75359;BME280;64046;51.978;5.934;2024-01-15T07:17:55;100001.88;;;6.65;91.23
75359;BME280;64046;51.978;5.934;2024-01-15T07:20:24;99993.09;;;6.67;90.77
75359;BME280;64046;51.978;5.934;2024-01-15T07:22:55;99991.84;;;6.76;90.49
75359;BME280;64046;51.978;5.934;2024-01-15T07:25:29;99998.69;;;6.58;90.94
75359;BME280;64046;51.978;5.934;2024-01-15T07:28:04;99991.09;;;6.74;90.61
75359;BME280;64046;51.978;5.934;2024-01-15T07:30:35;100002.66;;;6.67;90.47
75359;BME280;64046;51.978;5.934;2024-01-15T07:33:05;100004.25;;;6.49;91.01
75359;BME280;64046;51.978;5.934;2024-01-15T07:35:35;99997.53;;;6.43;91.27
75359;BME280;64046;51.978;5.934;2024-01-15T07:38:04;100005.19;;;6.48;91.39
75359;BME280;64046;51.978;5.934;2024-01-15T07:40:36;100000.25;;;6.62;90.68
75359;BME280;64046;51.978;5.934;2024-01-15T07:43:11;100011.50;;;6.63;90.61
75359;BME280;64046;51.978;5.934;2024-01-15T07:45:43;100002.31;;;6.54;90.96
75359;BME280;64046;51.978;5.934;2024-01-15T07:48:15;100012.56;;;6.36;91.18
75359;BME280;64046;51.978;5.934;2024-01-15T07:50:44;100008.25;;;6.35;91.18
75359;BME280;64046;51.978;5.934;2024-01-15T07:53:14;100006.34;;;6.40;91.33
75359;BME280;64046;51.978;5.934;2024-01-15T07:55:43;100017.66;;;6.39;91.01
75359;BME280;64046;51.978;5.934;2024-01-15T07:58:18;100023.00;;;6.57;91.09
75359;BME280;64046;51.978;5.934;2024-01-15T08:00:47;100025.56;;;6.36;91.07
75359;BME280;64046;51.978;5.934;2024-01-15T08:03:18;100028.25;;;6.35;91.06
75359;BME280;64046;51.978;5.934;2024-01-15T08:05:47;100035.94;;;6.38;91.08
75359;BME280;64046;51.978;5.934;2024-01-15T08:08:18;100017.03;;;6.33;91.37
75359;BME280;64046;51.978;5.934;2024-01-15T08:10:50;100013.41;;;6.37;91.47
75359;BME280;64046;51.978;5.934;2024-01-15T08:13:23;100017.09;;;6.53;91.20
75359;BME280;64046;51.978;5.934;2024-01-15T08:15:57;100013.41;;;6.37;91.46
75359;BME280;64046;51.978;5.934;2024-01-15T08:18:29;100008.06;;;6.40;91.61
75359;BME280;64046;51.978;5.934;2024-01-15T08:21:01;100011.50;;;6.63;91.00
75359;BME280;64046;51.978;5.934;2024-01-15T08:23:34;100020.16;;;6.63;91.15
75359;BME280;64046;51.978;5.934;2024-01-15T08:26:04;100016.22;;;6.53;90.84
75359;BME280;64046;51.978;5.934;2024-01-15T08:28:40;100012.88;;;6.71;90.37
75359;BME280;64046;51.978;5.934;2024-01-15T08:31:12;100013.69;;;6.73;90.54
75359;BME280;64046;51.978;5.934;2024-01-15T08:33:43;100016.78;;;6.61;90.56
75359;BME280;64046;51.978;5.934;2024-01-15T08:36:18;100008.69;;;6.67;90.36
75359;BME280;64046;51.978;5.934;2024-01-15T08:38:49;100004.50;;;6.85;90.30
75359;BME280;64046;51.978;5.934;2024-01-15T08:41:19;99999.72;;;6.74;90.24
75359;BME280;64046;51.978;5.934;2024-01-15T08:43:50;100004.03;;;6.96;89.80
75359;BME280;64046;51.978;5.934;2024-01-15T08:46:20;99997.78;;;6.80;89.90
75359;BME280;64046;51.978;5.934;2024-01-15T08:48:55;100000.34;;;6.81;90.11
75359;BME280;64046;51.978;5.934;2024-01-15T08:51:27;100008.06;;;6.83;90.07
75359;BME280;64046;51.978;5.934;2024-01-15T08:53:59;100009.91;;;7.01;89.65
75359;BME280;64046;51.978;5.934;2024-01-15T08:56:32;100016.56;;;6.88;89.64
75359;BME280;64046;51.978;5.934;2024-01-15T08:59:04;100021.44;;;6.96;89.41
75359;BME280;64046;51.978;5.934;2024-01-15T09:01:33;100025.00;;;6.72;92.14
75359;BME280;64046;51.978;5.934;2024-01-15T09:04:03;100040.16;;;6.83;90.18
75359;BME280;64046;51.978;5.934;2024-01-15T09:06:33;100042.13;;;6.78;90.22
75359;BME280;64046;51.978;5.934;2024-01-15T09:09:03;100035.34;;;6.74;90.23
75359;BME280;64046;51.978;5.934;2024-01-15T09:11:32;100032.00;;;6.70;89.97
75359;BME280;64046;51.978;5.934;2024-01-15T09:14:04;100019.16;;;6.88;89.77
75359;BME280;64046;51.978;5.934;2024-01-15T09:16:34;100030.91;;;6.76;89.97
75359;BME280;64046;51.978;5.934;2024-01-15T09:19:07;100026.91;;;6.89;89.49
75359;BME280;64046;51.978;5.934;2024-01-15T09:21:39;100020.91;;;6.87;89.79
75359;BME280;64046;51.978;5.934;2024-01-15T09:24:13;100031.19;;;6.90;89.68
75359;BME280;64046;51.978;5.934;2024-01-15T09:26:42;100030.59;;;6.84;89.20
75359;BME280;64046;51.978;5.934;2024-01-15T09:29:14;100041.22;;;7.00;89.01
75359;BME280;64046;51.978;5.934;2024-01-15T09:31:44;100042.00;;;6.81;89.25
75359;BME280;64046;51.978;5.934;2024-01-15T09:34:23;100026.63;;;6.96;89.03
75359;BME280;64046;51.978;5.934;2024-01-15T09:36:53;100025.34;;;6.85;89.35
75359;BME280;64046;51.978;5.934;2024-01-15T09:39:23;100022.72;;;6.85;89.18
75359;BME280;64046;51.978;5.934;2024-01-15T09:41:55;100023.63;;;7.05;88.61
75359;BME280;64046;51.978;5.934;2024-01-15T09:44:28;100016.53;;;7.08;88.73
75359;BME280;64046;51.978;5.934;2024-01-15T09:46:58;100015.88;;;7.03;88.42
75359;BME280;64046;51.978;5.934;2024-01-15T09:49:28;100022.25;;;6.96;88.49
75359;BME280;64046;51.978;5.934;2024-01-15T09:51:58;100015.56;;;6.90;88.76
75359;BME280;64046;51.978;5.934;2024-01-15T09:54:28;100024.03;;;6.96;88.58
75359;BME280;64046;51.978;5.934;2024-01-15T09:56:59;100017.06;;;6.96;88.66
75359;BME280;64046;51.978;5.934;2024-01-15T09:59:37;100017.50;;;7.06;88.33
75359;BME280;64046;51.978;5.934;2024-01-15T10:02:08;100014.59;;;6.93;88.56
75359;BME280;64046;51.978;5.934;2024-01-15T10:04:42;100026.38;;;6.81;88.46
75359;BME280;64046;51.978;5.934;2024-01-15T10:07:22;100022.66;;;6.87;88.68
75359;BME280;64046;51.978;5.934;2024-01-15T10:09:50;100034.81;;;6.66;89.20
75359;BME280;64046;51.978;5.934;2024-01-15T10:12:20;100037.94;;;6.74;89.33
75359;BME280;64046;51.978;5.934;2024-01-15T10:14:53;100036.78;;;6.81;88.93
75359;BME280;64046;51.978;5.934;2024-01-15T10:17:24;100032.69;;;6.75;89.00
75359;BME280;64046;51.978;5.934;2024-01-15T10:19:57;100027.00;;;6.66;89.64
75359;BME280;64046;51.978;5.934;2024-01-15T10:22:27;100031.03;;;6.73;89.32
75359;BME280;64046;51.978;5.934;2024-01-15T10:24:58;100035.09;;;6.80;89.08
75359;BME280;64046;51.978;5.934;2024-01-15T10:27:27;100025.97;;;6.90;88.54
75359;BME280;64046;51.978;5.934;2024-01-15T10:30:02;100039.09;;;7.09;88.25
75359;BME280;64046;51.978;5.934;2024-01-15T10:32:32;100027.88;;;6.87;88.22
75359;BME280;64046;51.978;5.934;2024-01-15T10:35:01;100029.81;;;6.82;89.10
75359;BME280;64046;51.978;5.934;2024-01-15T10:37:33;100031.84;;;6.96;88.77
75359;BME280;64046;51.978;5.934;2024-01-15T10:40:02;100033.28;;;6.82;89.06
75359;BME280;64046;51.978;5.934;2024-01-15T10:42:35;100033.41;;;6.79;88.98
75359;BME280;64046;51.978;5.934;2024-01-15T10:45:08;100024.47;;;6.85;88.87
75359;BME280;64046;51.978;5.934;2024-01-15T10:47:45;100027.94;;;6.85;89.55
75359;BME280;64046;51.978;5.934;2024-01-15T10:50:15;100027.72;;;6.69;89.98
75359;BME280;64046;51.978;5.934;2024-01-15T10:52:45;100024.25;;;6.69;90.34
75359;BME280;64046;51.978;5.934;2024-01-15T10:55:15;100027.53;;;6.74;90.39
75359;BME280;64046;51.978;5.934;2024-01-15T10:57:51;100024.03;;;6.96;89.91
75359;BME280;64046;51.978;5.934;2024-01-15T11:00:29;100022.78;;;7.04;89.70
75359;BME280;64046;51.978;5.934;2024-01-15T11:03:00;100029.78;;;7.04;89.98
75359;BME280;64046;51.978;5.934;2024-01-15T11:05:33;100024.69;;;7.01;89.88
75359;BME280;64046;51.978;5.934;2024-01-15T11:08:07;100021.97;;;7.04;90.01
75359;BME280;64046;51.978;5.934;2024-01-15T11:10:41;100021.03;;;7.05;89.58
75359;BME280;64046;51.978;5.934;2024-01-15T11:13:20;100026.38;;;7.02;89.79
75359;BME280;64046;51.978;5.934;2024-01-15T11:16:02;100022.78;;;7.04;89.42
75359;BME280;64046;51.978;5.934;2024-01-15T11:18:35;100018.88;;;6.94;90.58
75359;BME280;64046;51.978;5.934;2024-01-15T11:21:28;100026.81;;;7.12;89.25
75359;BME280;64046;51.978;5.934;2024-01-15T11:23:59;100024.81;;;6.98;90.53
75359;BME280;64046;51.978;5.934;2024-01-15T11:26:36;100038.50;;;7.03;90.39
75359;BME280;64046;51.978;5.934;2024-01-15T11:29:31;100036.72;;;7.24;88.78
75359;BME280;64046;51.978;5.934;2024-01-15T11:32:08;100033.75;;;7.13;89.75
75359;BME280;64046;51.978;5.934;2024-01-15T11:34:54;100033.34;;;7.22;89.14
75359;BME280;64046;51.978;5.934;2024-01-15T11:37:25;100033.41;;;7.00;90.71
75359;BME280;64046;51.978;5.934;2024-01-15T11:40:01;100030.09;;;7.17;90.06
75359;BME280;64046;51.978;5.934;2024-01-15T11:42:32;100041.44;;;6.95;90.68
75359;BME280;64046;51.978;5.934;2024-01-15T11:45:06;100042.53;;;7.10;90.42
75359;BME280;64046;51.978;5.934;2024-01-15T11:48:09;100045.31;;;7.26;89.64
75359;BME280;64046;51.978;5.934;2024-01-15T11:50:42;100037.13;;;7.15;90.43
75359;BME280;64046;51.978;5.934;2024-01-15T11:53:37;100049.56;;;7.28;89.29
75359;BME280;64046;51.978;5.934;2024-01-15T11:56:14;100040.66;;;7.14;90.41
75359;BME280;64046;51.978;5.934;2024-01-15T11:58:45;100038.34;;;7.06;90.58
75359;BME280;64046;51.978;5.934;2024-01-15T12:01:17;100032.63;;;6.98;90.29
75359;BME280;64046;51.978;5.934;2024-01-15T12:03:53;100037.84;;;7.18;89.77
75359;BME280;64046;51.978;5.934;2024-01-15T12:06:26;100039.47;;;7.00;90.23
75359;BME280;64046;51.978;5.934;2024-01-15T12:09:14;100043.25;;;7.34;89.12
75359;BME280;64046;51.978;5.934;2024-01-15T12:11:51;100030.47;;;7.28;89.34
75359;BME280;64046;51.978;5.934;2024-01-15T12:14:23;100028.47;;;7.14;89.82
75359;BME280;64046;51.978;5.934;2024-01-15T12:16:57;100036.06;;;7.39;89.17
75359;BME280;64046;51.978;5.934;2024-01-15T12:19:30;100038.63;;;7.41;89.19
75359;BME280;64046;51.978;5.934;2024-01-15T12:22:02;100040.56;;;7.36;89.29
75359;BME280;64046;51.978;5.934;2024-01-15T12:24:31;100045.91;;;7.33;89.10
75359;BME280;64046;51.978;5.934;2024-01-15T12:27:04;100044.72;;;7.40;88.98
75359;BME280;64046;51.978;5.934;2024-01-15T12:29:38;100058.53;;;7.62;88.51
75359;BME280;64046;51.978;5.934;2024-01-15T12:32:08;100064.25;;;7.50;88.13
75359;BME280;64046;51.978;5.934;2024-01-15T12:34:43;100066.91;;;7.69;87.17
75359;BME280;64046;51.978;5.934;2024-01-15T12:37:12;100069.63;;;7.47;88.09
75359;BME280;64046;51.978;5.934;2024-01-15T12:39:43;100079.84;;;7.52;88.07
75359;BME280;64046;51.978;5.934;2024-01-15T12:42:17;100079.84;;;7.52;87.64
75359;BME280;64046;51.978;5.934;2024-01-15T12:44:48;100094.59;;;7.32;88.66
75359;BME280;64046;51.978;5.934;2024-01-15T12:47:24;100104.47;;;7.44;88.17
75359;BME280;64046;51.978;5.934;2024-01-15T12:49:58;100104.41;;;7.46;87.93
75359;BME280;64046;51.978;5.934;2024-01-15T12:52:29;100099.50;;;7.18;88.17
75359;BME280;64046;51.978;5.934;2024-01-15T12:55:00;100089.97;;;7.18;88.58
75359;BME280;64046;51.978;5.934;2024-01-15T12:57:35;100081.75;;;7.07;89.27
75359;BME280;64046;51.978;5.934;2024-01-15T13:00:11;100078.97;;;7.32;88.41
75359;BME280;64046;51.978;5.934;2024-01-15T13:02:41;100075.28;;;7.16;88.72
75359;BME280;64046;51.978;5.934;2024-01-15T13:05:15;100079.38;;;7.42;88.77
75359;BME280;64046;51.978;5.934;2024-01-15T13:07:45;100081.50;;;7.34;88.44
75359;BME280;64046;51.978;5.934;2024-01-15T13:10:15;100090.81;;;7.39;88.32
75359;BME280;64046;51.978;5.934;2024-01-15T13:12:45;100088.97;;;7.41;88.08
75359;BME280;64046;51.978;5.934;2024-01-15T13:15:17;100102.13;;;7.59;87.58
75359;BME280;64046;51.978;5.934;2024-01-15T13:17:49;100088.75;;;7.46;87.30
75359;BME280;64046;51.978;5.934;2024-01-15T13:20:28;100086.91;;;7.69;85.36
75359;BME280;64046;51.978;5.934;2024-01-15T13:22:57;100090.97;;;7.35;85.86
75359;BME280;64046;51.978;5.934;2024-01-15T13:25:28;100095.63;;;7.28;86.00